Time;durP1;ratioP1;P1;durP2;ratioP2;P2;SDS_P1;SDS_P2;PMS_P1;PMS_P2;Temp;Humidity;BMP_temperature;BMP_pressure;BME280_temperature;BME280_humidity;BME280_pressure;Samples;Min_cycle;Max_cycle;Signal;HPM_P1;HPM_P2
2023/08/06 00:01:11;;;;;;;3.60;2.10;;;;;;;;;;5090771;28;20020;-75
2023/08/06 00:03:37;;;;;;;3.28;2.00;;;;;;;;;;5086441;28;20032;-74
2023/08/06 00:06:04;;;;;;;4.10;2.13;;;;;;;;;;5088180;28;20077;-75
2023/08/06 00:08:30;;;;;;;3.58;2.00;;;;;;;;;;5087827;28;20062;-75
2023/08/06 00:10:55;;;;;;;3.00;1.65;;;;;;;;;;5090623;28;20020;-75
2023/08/06 00:13:20;;;;;;;3.33;2.00;;;;;;;;;;5086803;28;20035;-76
2023/08/06 00:15:46;;;;;;;3.53;2.10;;;;;;;;;;5086626;28;20063;-75
2023/08/06 00:18:11;;;;;;;3.10;2.00;;;;;;;;;;5091630;28;20077;-75
2023/08/06 00:20:39;;;;;;;3.40;2.03;;;;;;;;;;5084618;28;20074;-75
2023/08/06 00:23:04;;;;;;;5.40;2.30;;;;;;;;;;5092768;28;20027;-75
2023/08/06 00:25:30;;;;;;;3.28;1.85;;;;;;;;;;5094088;28;20020;-75
2023/08/06 00:27:56;;;;;;;3.00;1.90;;;;;;;;;;5093721;28;20085;-75
2023/08/06 00:30:21;;;;;;;4.55;1.90;;;;;;;;;;5091087;28;20024;-75
2023/08/06 00:32:47;;;;;;;4.88;2.17;;;;;;;;;;5095852;28;20498;-74
2023/08/06 00:35:13;;;;;;;3.90;2.00;;;;;;;;;;5087354;28;20020;-75
2023/08/06 00:37:39;;;;;;;3.78;1.73;;;;;;;;;;5090830;28;20537;-75
2023/08/06 00:40:05;;;;;;;4.78;1.98;;;;;;;;;;5087556;28;20033;-75
2023/08/06 00:42:31;;;;;;;3.47;1.98;;;;;;;;;;5079713;28;20023;-75
2023/08/06 00:44:56;;;;;;;2.53;1.67;;;;;;;;;;5081814;28;20068;-75
2023/08/06 00:47:22;;;;;;;3.85;1.63;;;;;;;;;;5092343;28;20012;-77
2023/08/06 00:49:47;;;;;;;3.00;1.80;;;;;;;;;;5092219;28;20021;-75
2023/08/06 00:52:13;;;;;;;2.90;1.80;;;;;;;;;;5085184;28;20118;-75
2023/08/06 00:54:39;;;;;;;3.38;1.50;;;;;;;;;;5098792;28;20483;-75
2023/08/06 00:57:07;;;;;;;2.90;1.70;;;;;;;;;;5093529;28;20035;-75
2023/08/06 00:59:32;;;;;;;3.75;2.03;;;;;;;;;;5094019;28;20028;-75
2023/08/06 01:01:58;;;;;;;3.42;1.85;;;;;;;;;;5098457;28;20054;-75
2023/08/06 01:04:24;;;;;;;4.63;1.67;;;;;;;;;;5094959;28;20039;-89
2023/08/06 01:07:17;;;;;;;3.33;1.85;;;;;;;;;;5094716;28;20020;-90
2023/08/06 01:09:53;;;;;;;2.95;1.63;;;;;;;;;;5086998;28;20030;-90
2023/08/06 01:12:45;;;;;;;3.83;2.10;;;;;;;;;;5088946;28;20025;-91
2023/08/06 01:15:20;;;;;;;3.10;1.83;;;;;;;;;;5095251;28;20111;-91
2023/08/06 01:17:46;;;;;;;3.92;1.98;;;;;;;;;;5094028;28;20055;-90
2023/08/06 01:20:11;;;;;;;4.05;2.08;;;;;;;;;;5095291;28;20038;-90
2023/08/06 01:22:37;;;;;;;3.45;1.90;;;;;;;;;;5095215;28;20016;-90
2023/08/06 01:25:03;;;;;;;2.83;1.80;;;;;;;;;;5086556;28;20027;-90
2023/08/06 01:27:33;;;;;;;3.88;2.33;;;;;;;;;;5095739;28;20069;-90
2023/08/06 01:30:25;;;;;;;3.17;2.08;;;;;;;;;;5095847;28;20447;-89
2023/08/06 01:32:55;;;;;;;6.28;2.20;;;;;;;;;;5091290;28;20036;-90
2023/08/06 01:35:22;;;;;;;3.00;2.08;;;;;;;;;;5094555;28;20040;-89
2023/08/06 01:37:48;;;;;;;3.40;2.10;;;;;;;;;;5094384;28;20033;-90
2023/08/06 01:40:14;;;;;;;4.03;2.40;;;;;;;;;;5094302;28;20046;-91
2023/08/06 01:42:39;;;;;;;4.75;2.42;;;;;;;;;;5096770;28;20035;-88
2023/08/06 01:45:06;;;;;;;3.85;2.17;;;;;;;;;;5096397;28;20012;-89
2023/08/06 01:47:32;;;;;;;4.25;2.40;;;;;;;;;;5094572;28;20019;-89
2023/08/06 01:49:57;;;;;;;4.30;2.33;;;;;;;;;;5093439;28;20081;-90
2023/08/06 01:52:23;;;;;;;3.92;2.47;;;;;;;;;;5093549;28;20136;-90
2023/08/06 01:54:48;;;;;;;3.53;2.25;;;;;;;;;;5091663;28;20347;-91
2023/08/06 01:57:13;;;;;;;4.43;2.47;;;;;;;;;;5093394;28;20429;-89
2023/08/06 01:59:39;;;;;;;4.03;2.30;;;;;;;;;;5093268;28;20024;-91
2023/08/06 02:02:04;;;;;;;4.85;2.60;;;;;;;;;;5092894;28;20468;-90
2023/08/06 02:04:30;;;;;;;4.45;2.38;;;;;;;;;;5093275;28;20134;-91
2023/08/06 02:06:55;;;;;;;3.97;2.35;;;;;;;;;;5082870;28;20028;-91
2023/08/06 02:09:20;;;;;;;4.05;2.55;;;;;;;;;;5088840;28;20024;-91
2023/08/06 02:11:46;;;;;;;4.10;2.22;;;;;;;;;;5094274;28;20100;-91
2023/08/06 02:14:11;;;;;;;3.40;2.30;;;;;;;;;;5092961;28;20468;-76
2023/08/06 02:16:37;;;;;;;3.72;2.17;;;;;;;;;;5084819;28;20051;-75
2023/08/06 02:19:02;;;;;;;4.55;2.30;;;;;;;;;;5090244;28;20028;-76
2023/08/06 02:21:28;;;;;;;4.47;2.63;;;;;;;;;;5092905;28;20031;-76
2023/08/06 02:23:53;;;;;;;3.67;2.17;;;;;;;;;;5092716;28;20073;-75
2023/08/06 02:26:18;;;;;;;3.70;2.30;;;;;;;;;;5087325;28;20059;-75
2023/08/06 02:28:44;;;;;;;3.55;2.33;;;;;;;;;;5089315;28;20020;-76
2023/08/06 02:31:09;;;;;;;3.30;2.22;;;;;;;;;;5090266;28;20023;-75
2023/08/06 02:33:35;;;;;;;3.60;2.30;;;;;;;;;;5093606;28;20031;-76
2023/08/06 02:36:01;;;;;;;4.80;2.60;;;;;;;;;;5093805;28;20168;-75
2023/08/06 02:38:27;;;;;;;3.65;2.40;;;;;;;;;;5093087;28;20032;-76
2023/08/06 02:40:52;;;;;;;3.83;2.45;;;;;;;;;;5085231;28;20084;-75
2023/08/06 02:43:17;;;;;;;5.00;2.35;;;;;;;;;;5090847;28;20024;-75
2023/08/06 02:45:43;;;;;;;6.00;2.60;;;;;;;;;;5093644;28;20035;-75
2023/08/06 02:48:08;;;;;;;3.97;2.30;;;;;;;;;;5096027;28;20020;-76
2023/08/06 02:50:41;;;;;;;3.67;2.60;;;;;;;;;;5094792;28;20024;-75
2023/08/06 02:53:10;;;;;;;4.20;2.47;;;;;;;;;;5050868;28;20568;-76
2023/08/06 02:55:36;;;;;;;4.32;2.60;;;;;;;;;;5053076;28;20036;-75
2023/08/06 02:58:02;;;;;;;4.88;2.53;;;;;;;;;;5058240;28;20028;-76
2023/08/06 03:00:27;;;;;;;4.55;2.50;;;;;;;;;;5057830;28;20096;-76
2023/08/06 03:02:53;;;;;;;4.43;2.70;;;;;;;;;;5061842;28;20025;-76
2023/08/06 03:05:19;;;;;;;2.92;2.10;;;;;;;;;;5054219;28;20027;-76
2023/08/06 03:07:44;;;;;;;6.90;2.45;;;;;;;;;;5051553;28;20125;-76
2023/08/06 03:10:09;;;;;;;3.55;2.00;;;;;;;;;;5052152;28;20063;-76
2023/08/06 03:12:35;;;;;;;3.38;2.40;;;;;;;;;;5059961;28;20066;-75
2023/08/06 03:15:00;;;;;;;4.28;2.38;;;;;;;;;;5052835;28;20082;-75
2023/08/06 03:17:26;;;;;;;4.80;2.50;;;;;;;;;;5064490;28;20472;-76
2023/08/06 03:19:51;;;;;;;2.67;2.05;;;;;;;;;;5057768;28;20048;-75
2023/08/06 03:22:16;;;;;;;3.72;2.38;;;;;;;;;;5061757;28;20494;-75
2023/08/06 03:24:42;;;;;;;3.42;2.38;;;;;;;;;;5056666;28;20033;-76
2023/08/06 03:27:07;;;;;;;4.35;2.60;;;;;;;;;;5056526;28;20028;-74
2023/08/06 03:29:33;;;;;;;4.30;2.90;;;;;;;;;;5057537;28;20013;-74
2023/08/06 03:31:58;;;;;;;5.35;2.65;;;;;;;;;;5052626;28;20025;-74
2023/08/06 03:34:23;;;;;;;4.95;2.53;;;;;;;;;;5057013;28;20035;-74
2023/08/06 03:36:49;;;;;;;3.60;2.42;;;;;;;;;;5053755;28;20013;-74
2023/08/06 03:39:14;;;;;;;4.45;2.28;;;;;;;;;;5052342;28;20043;-74
2023/08/06 03:41:40;;;;;;;3.65;2.45;;;;;;;;;;5063116;28;20025;-74
2023/08/06 03:44:05;;;;;;;4.50;2.70;;;;;;;;;;5052432;28;20025;-75
2023/08/06 03:46:34;;;;;;;4.75;2.50;;;;;;;;;;5052738;28;20545;-74
2023/08/06 03:49:02;;;;;;;3.92;2.40;;;;;;;;;;5059826;28;20021;-75
2023/08/06 03:51:28;;;;;;;4.60;2.33;;;;;;;;;;5052481;28;20027;-75
2023/08/06 03:53:53;;;;;;;7.15;2.55;;;;;;;;;;5081207;28;20024;-75
2023/08/06 03:56:19;;;;;;;3.85;2.60;;;;;;;;;;5088994;28;20054;-74
2023/08/06 03:58:44;;;;;;;4.57;2.40;;;;;;;;;;5082604;28;20079;-76
2023/08/06 04:01:10;;;;;;;4.28;2.50;;;;;;;;;;5088491;28;20039;-74
2023/08/06 04:03:35;;;;;;;6.55;2.30;;;;;;;;;;5093241;28;20024;-74
2023/08/06 04:06:02;;;;;;;4.13;2.47;;;;;;;;;;5088982;28;20039;-74
2023/08/06 04:08:28;;;;;;;3.63;2.33;;;;;;;;;;5088325;28;20016;-75
2023/08/06 04:10:53;;;;;;;4.97;2.80;;;;;;;;;;5085297;28;20031;-75
2023/08/06 04:13:20;;;;;;;4.20;2.65;;;;;;;;;;5091855;28;20031;-74
2023/08/06 04:15:46;;;;;;;4.20;2.35;;;;;;;;;;5102534;28;20486;-75
2023/08/06 04:18:11;;;;;;;5.28;2.55;;;;;;;;;;5102207;28;20024;-74
2023/08/06 04:20:44;;;;;;;5.50;3.05;;;;;;;;;;5090214;28;20039;-74
2023/08/06 04:23:10;;;;;;;5.07;2.50;;;;;;;;;;5095503;28;20020;-75
2023/08/06 04:25:35;;;;;;;3.17;2.15;;;;;;;;;;5096021;28;20391;-75
2023/08/06 04:28:00;;;;;;;4.38;2.50;;;;;;;;;;5100849;28;20028;-74
2023/08/06 04:30:26;;;;;;;6.80;2.67;;;;;;;;;;5103611;28;20024;-74
2023/08/06 04:32:51;;;;;;;8.05;3.03;;;;;;;;;;5070138;28;20032;-74
2023/08/06 04:35:17;;;;;;;3.70;2.50;;;;;;;;;;5087885;28;20548;-91
2023/08/06 04:37:42;;;;;;;3.58;2.33;;;;;;;;;;5098123;28;20074;-90
2023/08/06 04:40:08;;;;;;;4.35;2.65;;;;;;;;;;5094353;28;20058;-90
2023/08/06 04:42:33;;;;;;;4.20;2.63;;;;;;;;;;5104291;28;20023;-90
2023/08/06 04:45:01;;;;;;;6.93;3.47;;;;;;;;;;5090912;28;20472;-91
2023/08/06 04:47:27;;;;;;;3.83;2.58;;;;;;;;;;5089682;28;20055;-91
2023/08/06 04:49:52;;;;;;;4.45;2.78;;;;;;;;;;5094563;28;20059;-91
2023/08/06 04:52:17;;;;;;;6.55;3.08;;;;;;;;;;5095991;28;20509;-91
2023/08/06 04:54:43;;;;;;;5.80;2.95;;;;;;;;;;5090728;28;20029;-89
2023/08/06 04:57:09;;;;;;;4.20;2.78;;;;;;;;;;5088353;28;20044;-91
2023/08/06 04:59:34;;;;;;;4.43;3.08;;;;;;;;;;5087100;28;20495;-90
2023/08/06 05:02:00;;;;;;;4.80;3.08;;;;;;;;;;5086626;28;20032;-91
2023/08/06 05:04:25;;;;;;;4.85;3.22;;;;;;;;;;5091058;28;20028;-85
2023/08/06 05:06:50;;;;;;;4.65;3.10;;;;;;;;;;5082057;28;20024;-88
2023/08/06 05:09:16;;;;;;;4.50;2.72;;;;;;;;;;5092172;28;20455;-90
2023/08/06 05:11:41;;;;;;;6.55;3.50;;;;;;;;;;5097550;28;20115;-90
2023/08/06 05:14:06;;;;;;;6.25;4.00;;;;;;;;;;5095264;28;20467;-90
2023/08/06 05:16:32;;;;;;;4.85;3.45;;;;;;;;;;5095282;28;20081;-91
2023/08/06 05:18:57;;;;;;;6.22;3.88;;;;;;;;;;5103482;28;20031;-91
2023/08/06 05:21:23;;;;;;;5.78;3.50;;;;;;;;;;5093418;28;20443;-90
2023/08/06 05:23:48;;;;;;;6.40;3.85;;;;;;;;;;5092575;28;20031;-90
2023/08/06 05:26:16;;;;;;;6.70;3.60;;;;;;;;;;5092632;28;20024;-89
2023/08/06 05:28:41;;;;;;;10.20;4.22;;;;;;;;;;5091718;28;20081;-89
2023/08/06 05:31:07;;;;;;;4.82;3.33;;;;;;;;;;5091800;28;20028;-90
2023/08/06 05:33:32;;;;;;;8.98;4.22;;;;;;;;;;5088582;28;20089;-90
2023/08/06 05:35:57;;;;;;;8.80;3.08;;;;;;;;;;5091714;28;20024;-90
2023/08/06 05:38:23;;;;;;;5.00;3.55;;;;;;;;;;5094040;28;20075;-89
2023/08/06 05:40:49;;;;;;;5.18;3.33;;;;;;;;;;5089962;28;20023;-90
2023/08/06 05:43:14;;;;;;;7.07;4.10;;;;;;;;;;5091028;28;20032;-89
2023/08/06 05:45:44;;;;;;;8.18;4.00;;;;;;;;;;5089392;28;20092;-90
2023/08/06 05:48:09;;;;;;;5.75;3.65;;;;;;;;;;5085845;28;20028;-90
2023/08/06 05:50:35;;;;;;;4.65;3.05;;;;;;;;;;5086922;28;20020;-90
2023/08/06 05:53:00;;;;;;;4.50;3.40;;;;;;;;;;5085559;28;20036;-91
2023/08/06 05:55:25;;;;;;;5.18;3.60;;;;;;;;;;5091177;28;20388;-74
2023/08/06 05:57:52;;;;;;;5.38;3.47;;;;;;;;;;5090355;28;20032;-75
2023/08/06 06:00:18;;;;;;;5.75;3.60;;;;;;;;;;5084621;28;20514;-74
2023/08/06 06:02:43;;;;;;;7.05;4.47;;;;;;;;;;5093006;28;20475;-74
2023/08/06 06:05:09;;;;;;;6.82;3.60;;;;;;;;;;5093926;28;20042;-75
2023/08/06 06:07:34;;;;;;;6.03;4.28;;;;;;;;;;5086449;28;20036;-74
2023/08/06 06:10:00;;;;;;;6.75;4.28;;;;;;;;;;5086403;28;20026;-74
2023/08/06 06:12:26;;;;;;;8.32;5.03;;;;;;;;;;5082972;28;20020;-75
2023/08/06 06:14:51;;;;;;;6.07;3.92;;;;;;;;;;5094757;28;20026;-74
2023/08/06 06:17:17;;;;;;;6.70;4.20;;;;;;;;;;5080000;28;20024;-74
2023/08/06 06:19:42;;;;;;;7.07;4.75;;;;;;;;;;5083375;28;20028;-74
2023/08/06 06:22:07;;;;;;;8.32;5.60;;;;;;;;;;5086300;28;20027;-74
2023/08/06 06:24:33;;;;;;;8.18;5.88;;;;;;;;;;5104525;28;20035;-75
2023/08/06 06:26:58;;;;;;;7.90;6.10;;;;;;;;;;5092735;28;20484;-75
2023/08/06 06:29:24;;;;;;;8.00;6.05;;;;;;;;;;5093970;28;20138;-75
2023/08/06 06:31:49;;;;;;;11.85;7.47;;;;;;;;;;5092254;28;20475;-74
2023/08/06 06:34:15;;;;;;;12.80;7.57;;;;;;;;;;5085506;28;20039;-75
2023/08/06 06:36:40;;;;;;;10.85;6.65;;;;;;;;;;5086019;28;20047;-74
2023/08/06 06:39:05;;;;;;;9.15;7.30;;;;;;;;;;5088654;28;20020;-74
2023/08/06 06:41:32;;;;;;;9.43;5.70;;;;;;;;;;5093105;28;20040;-74
2023/08/06 06:43:58;;;;;;;8.20;5.70;;;;;;;;;;5091924;28;20028;-74
2023/08/06 06:46:23;;;;;;;8.95;6.28;;;;;;;;;;5089880;28;20020;-74
2023/08/06 06:48:49;;;;;;;8.50;6.82;;;;;;;;;;5080661;28;20070;-75
2023/08/06 06:51:14;;;;;;;11.93;6.25;;;;;;;;;;5090310;28;20035;-74
2023/08/06 06:53:40;;;;;;;8.25;6.10;;;;;;;;;;5089098;28;20059;-74
2023/08/06 06:56:06;;;;;;;9.50;6.95;;;;;;;;;;5093169;28;20024;-74
2023/08/06 06:58:32;;;;;;;11.40;7.32;;;;;;;;;;5091828;28;20043;-74
2023/08/06 07:00:57;;;;;;;10.93;7.47;;;;;;;;;;5084958;28;20032;-75
2023/08/06 07:03:23;;;;;;;9.15;6.70;;;;;;;;;;5091347;28;20552;-75
2023/08/06 07:05:50;;;;;;;13.85;7.82;;;;;;;;;;5091780;28;20419;-76
2023/08/06 07:08:15;;;;;;;10.38;7.22;;;;;;;;;;5086663;28;20016;-76
2023/08/06 07:10:42;;;;;;;9.02;5.88;;;;;;;;;;5083677;28;20035;-76
2023/08/06 07:13:07;;;;;;;10.10;7.13;;;;;;;;;;5107621;28;20098;-75
2023/08/06 07:15:33;;;;;;;10.52;6.63;;;;;;;;;;5094795;28;20106;-75
2023/08/06 07:17:58;;;;;;;10.25;7.30;;;;;;;;;;5080611;28;20490;-75
2023/08/06 07:20:23;;;;;;;10.52;6.65;;;;;;;;;;5090573;28;20020;-76
2023/08/06 07:22:49;;;;;;;10.88;7.30;;;;;;;;;;5091393;28;20108;-76
2023/08/06 07:25:16;;;;;;;11.48;8.02;;;;;;;;;;5091067;28;20028;-76
2023/08/06 07:27:41;;;;;;;11.27;7.88;;;;;;;;;;5091585;28;20494;-76
2023/08/06 07:30:07;;;;;;;12.80;8.38;;;;;;;;;;5086527;28;20024;-77
2023/08/06 07:32:32;;;;;;;10.00;7.95;;;;;;;;;;5091276;28;20024;-76
2023/08/06 07:35:00;;;;;;;12.25;8.30;;;;;;;;;;5089702;28;20020;-76
2023/08/06 07:37:28;;;;;;;11.43;8.13;;;;;;;;;;5090354;28;20039;-76
2023/08/06 07:39:57;;;;;;;9.57;7.50;;;;;;;;;;5097587;28;20027;-76
2023/08/06 07:42:22;;;;;;;13.10;8.75;;;;;;;;;;5101808;28;20035;-78
2023/08/06 07:44:58;;;;;;;12.00;8.02;;;;;;;;;;5084515;28;20024;-76
2023/08/06 07:47:24;;;;;;;11.43;9.25;;;;;;;;;;5085841;28;20024;-76
2023/08/06 07:49:49;;;;;;;12.25;8.48;;;;;;;;;;5088321;28;20045;-76
2023/08/06 07:52:15;;;;;;;11.27;7.88;;;;;;;;;;5092344;28;20024;-77
2023/08/06 07:54:40;;;;;;;11.43;5.60;;;;;;;;;;5091085;28;20393;-77
2023/08/06 07:57:06;;;;;;;3.17;1.30;;;;;;;;;;5094459;28;20365;-77
2023/08/06 07:59:32;;;;;;;2.40;0.80;;;;;;;;;;5092218;28;20162;-77
2023/08/06 08:01:57;;;;;;;3.90;1.10;;;;;;;;;;5092193;28;20065;-77
2023/08/06 08:04:23;;;;;;;5.72;0.80;;;;;;;;;;5091538;28;20156;-77
2023/08/06 08:06:49;;;;;;;1.90;0.73;;;;;;;;;;5092135;28;20038;-77
2023/08/06 08:09:14;;;;;;;1.27;0.70;;;;;;;;;;5083733;28;20025;-76
2023/08/06 08:11:40;;;;;;;3.58;0.63;;;;;;;;;;5106465;28;20071;-77
2023/08/06 08:14:06;;;;;;;0.63;0.52;;;;;;;;;;5084277;28;20085;-76
2023/08/06 08:16:31;;;;;;;1.10;0.60;;;;;;;;;;5092545;28;20058;-76
2023/08/06 08:18:57;;;;;;;0.98;0.65;;;;;;;;;;5091416;28;20031;-77
2023/08/06 08:21:24;;;;;;;2.08;0.80;;;;;;;;;;5091852;28;20016;-78
2023/08/06 08:23:50;;;;;;;3.42;1.13;;;;;;;;;;5084972;28;20058;-77
2023/08/06 08:26:15;;;;;;;4.78;1.80;;;;;;;;;;5090949;28;20475;-78
2023/08/06 08:28:40;;;;;;;6.28;2.10;;;;;;;;;;5089692;28;20098;-77
2023/08/06 08:31:09;;;;;;;4.68;2.30;;;;;;;;;;5094668;28;20027;-77
2023/08/06 08:33:34;;;;;;;4.45;2.10;;;;;;;;;;5091720;28;20487;-77
2023/08/06 08:36:00;;;;;;;4.75;2.15;;;;;;;;;;5092195;28;20148;-77
2023/08/06 08:38:25;;;;;;;3.63;2.20;;;;;;;;;;5092555;28;20375;-77
2023/08/06 08:40:53;;;;;;;3.90;2.47;;;;;;;;;;5074649;28;20024;-77
2023/08/06 08:43:21;;;;;;;4.18;2.63;;;;;;;;;;5088034;28;20020;-76
2023/08/06 08:45:50;;;;;;;4.68;2.80;;;;;;;;;;5089843;28;20020;-77
2023/08/06 08:48:17;;;;;;;3.92;2.63;;;;;;;;;;5092577;28;20027;-77
2023/08/06 08:50:45;;;;;;;8.25;3.00;;;;;;;;;;5090586;28;20395;-76
2023/08/06 08:53:11;;;;;;;7.03;2.95;;;;;;;;;;5090456;28;20036;-77
2023/08/06 08:55:38;;;;;;;5.13;3.20;;;;;;;;;;5090632;28;20020;-77
2023/08/06 08:58:03;;;;;;;5.90;2.97;;;;;;;;;;5085054;28;20063;-76
2023/08/06 09:00:29;;;;;;;4.25;2.90;;;;;;;;;;5091745;28;20046;-76
2023/08/06 09:02:56;;;;;;;5.03;3.05;;;;;;;;;;5081026;28;20549;-76
2023/08/06 09:05:24;;;;;;;6.13;3.10;;;;;;;;;;5074904;28;20048;-76
2023/08/06 09:07:52;;;;;;;4.97;3.08;;;;;;;;;;5090884;28;20020;-87
2023/08/06 09:10:23;;;;;;;7.13;3.60;;;;;;;;;;5094328;28;20016;-86
2023/08/06 09:12:51;;;;;;;6.68;3.85;;;;;;;;;;5089451;28;20043;-86
2023/08/06 09:15:16;;;;;;;8.48;3.80;;;;;;;;;;5094095;28;20501;-87
2023/08/06 09:17:42;;;;;;;6.15;3.63;;;;;;;;;;5094857;28;20052;-87
2023/08/06 09:20:12;;;;;;;10.38;4.47;;;;;;;;;;5095929;28;20376;-88
2023/08/06 09:22:37;;;;;;;6.80;3.97;;;;;;;;;;5094095;28;20101;-88
2023/08/06 09:25:04;;;;;;;5.95;3.80;;;;;;;;;;5098885;28;20054;-89
2023/08/06 09:27:29;;;;;;;5.40;3.60;;;;;;;;;;5104953;28;20045;-88
2023/08/06 09:29:55;;;;;;;4.55;2.83;;;;;;;;;;5099332;28;20080;-86
2023/08/06 09:32:20;;;;;;;5.38;2.80;;;;;;;;;;5091186;28;20016;-89
2023/08/06 09:34:46;;;;;;;7.18;2.80;;;;;;;;;;5094151;28;20027;-87
2023/08/06 09:37:11;;;;;;;8.82;2.80;;;;;;;;;;5097868;28;20012;-89
2023/08/06 09:39:39;;;;;;;5.57;2.53;;;;;;;;;;5094959;28;20024;-88
2023/08/06 09:42:05;;;;;;;5.47;3.10;;;;;;;;;;5092802;28;20051;-87
2023/08/06 09:44:32;;;;;;;6.05;3.08;;;;;;;;;;5098200;28;20468;-88
2023/08/06 09:46:59;;;;;;;4.32;2.85;;;;;;;;;;5102594;28;20020;-87
2023/08/06 09:49:35;;;;;;;4.72;2.60;;;;;;;;;;5101678;28;20023;-87
2023/08/06 09:52:00;;;;;;;4.93;2.30;;;;;;;;;;5101728;28;20138;-87
2023/08/06 09:54:27;;;;;;;4.75;2.25;;;;;;;;;;5097635;28;20051;-86
2023/08/06 09:56:53;;;;;;;4.72;2.28;;;;;;;;;;5096639;28;20024;-88
2023/08/06 09:59:19;;;;;;;4.40;2.47;;;;;;;;;;5092164;28;20034;-86
2023/08/06 10:01:45;;;;;;;4.82;2.40;;;;;;;;;;5087435;28;20021;-87
2023/08/06 10:04:12;;;;;;;5.50;2.30;;;;;;;;;;5095666;28;20028;-87
2023/08/06 10:06:38;;;;;;;4.43;1.90;;;;;;;;;;5088403;28;20532;-88
2023/08/06 10:09:07;;;;;;;4.45;2.15;;;;;;;;;;5095124;28;20111;-88
2023/08/06 10:11:33;;;;;;;11.95;2.90;;;;;;;;;;5100087;28;20020;-87
2023/08/06 10:14:06;;;;;;;3.10;1.85;;;;;;;;;;5095943;28;20391;-89
2023/08/06 10:16:33;;;;;;;3.33;1.70;;;;;;;;;;5096893;28;20483;-89
2023/08/06 10:18:59;;;;;;;4.88;1.90;;;;;;;;;;5087316;28;20040;-89
2023/08/06 10:21:27;;;;;;;4.00;1.90;;;;;;;;;;5092679;28;20026;-88
2023/08/06 10:23:56;;;;;;;4.32;1.63;;;;;;;;;;5093461;28;20034;-90
2023/08/06 10:26:27;;;;;;;9.73;2.00;;;;;;;;;;5090443;28;20024;-89
2023/08/06 10:28:52;;;;;;;5.10;2.05;;;;;;;;;;5094491;28;20472;-90
2023/08/06 10:31:18;;;;;;;7.10;1.83;;;;;;;;;;5090709;28;20027;-90
2023/08/06 10:33:48;;;;;;;6.80;2.00;;;;;;;;;;5092727;28;20072;-89
2023/08/06 10:36:14;;;;;;;3.33;1.70;;;;;;;;;;5096008;28;20530;-88
2023/08/06 10:38:50;;;;;;;4.50;1.73;;;;;;;;;;5111041;28;20476;-90
2023/08/06 10:41:36;;;;;;;3.55;1.50;;;;;;;;;;5101444;28;20051;-87
2023/08/06 10:44:08;;;;;;;7.85;1.75;;;;;;;;;;5092253;28;20032;-87
2023/08/06 10:46:34;;;;;;;4.55;1.48;;;;;;;;;;5090748;28;20112;-87
2023/08/06 10:48:59;;;;;;;3.38;1.50;;;;;;;;;;5098716;28;20024;-88
2023/08/06 10:51:25;;;;;;;4.20;1.52;;;;;;;;;;5098306;28;20115;-87
2023/08/06 10:53:51;;;;;;;3.40;1.48;;;;;;;;;;5088979;28;20032;-81
2023/08/06 10:56:18;;;;;;;3.90;1.38;;;;;;;;;;5091450;28;20024;-88
2023/08/06 10:58:45;;;;;;;3.97;1.50;;;;;;;;;;5095382;28;20028;-88
2023/08/06 11:01:11;;;;;;;3.20;1.50;;;;;;;;;;5089555;28;20107;-88
2023/08/06 11:03:38;;;;;;;3.80;1.42;;;;;;;;;;5095443;28;20035;-88
2023/08/06 11:06:06;;;;;;;4.00;1.60;;;;;;;;;;5090797;28;20380;-88
2023/08/06 11:08:37;;;;;;;2.92;1.50;;;;;;;;;;5112009;28;20020;-88
2023/08/06 11:11:12;;;;;;;8.07;1.50;;;;;;;;;;5097327;28;20513;-87
2023/08/06 11:13:38;;;;;;;4.85;1.80;;;;;;;;;;5089888;28;20024;-88
2023/08/06 11:16:05;;;;;;;3.58;1.45;;;;;;;;;;5094846;28;20494;-87
2023/08/06 11:18:31;;;;;;;9.80;1.58;;;;;;;;;;5094940;28;20024;-88
2023/08/06 11:20:59;;;;;;;3.75;1.45;;;;;;;;;;5097696;28;20052;-87
2023/08/06 11:23:27;;;;;;;3.45;1.55;;;;;;;;;;5095180;28;20015;-87
2023/08/06 11:25:53;;;;;;;4.25;1.58;;;;;;;;;;5091516;28;20480;-89
2023/08/06 11:28:21;;;;;;;5.93;1.60;;;;;;;;;;5080102;28;20048;-88
2023/08/06 11:30:47;;;;;;;3.20;1.42;;;;;;;;;;5091892;28;20024;-89
2023/08/06 11:33:13;;;;;;;3.70;1.30;;;;;;;;;;5091466;28;20368;-88
2023/08/06 11:35:39;;;;;;;6.00;1.48;;;;;;;;;;5091317;28;20023;-89
2023/08/06 11:38:05;;;;;;;5.32;1.55;;;;;;;;;;5090767;28;20024;-89
2023/08/06 11:40:32;;;;;;;3.15;1.40;;;;;;;;;;5091307;28;20019;-88
2023/08/06 11:42:58;;;;;;;3.33;1.50;;;;;;;;;;5091144;28;20059;-88
2023/08/06 11:45:26;;;;;;;2.50;1.35;;;;;;;;;;5089334;28;20364;-86
2023/08/06 11:47:52;;;;;;;3.38;1.30;;;;;;;;;;5090736;28;20070;-86
2023/08/06 11:50:26;;;;;;;6.07;1.60;;;;;;;;;;5089215;28;20391;-86
2023/08/06 11:52:58;;;;;;;5.22;1.38;;;;;;;;;;5090266;28;20499;-87
2023/08/06 11:55:25;;;;;;;5.15;1.65;;;;;;;;;;5082767;28;20016;-86
2023/08/06 11:57:51;;;;;;;3.53;1.60;;;;;;;;;;5089258;28;20522;-85
2023/08/06 12:00:18;;;;;;;2.90;1.30;;;;;;;;;;5091312;28;20024;-87
2023/08/06 12:02:45;;;;;;;7.85;1.73;;;;;;;;;;5088380;28;20032;-87
2023/08/06 12:05:15;;;;;;;3.33;1.48;;;;;;;;;;5092201;28;20016;-87
2023/08/06 12:07:45;;;;;;;4.07;1.40;;;;;;;;;;5087711;28;20433;-87
2023/08/06 12:10:13;;;;;;;7.03;1.55;;;;;;;;;;5092658;28;20031;-87
2023/08/06 12:12:38;;;;;;;6.72;2.00;;;;;;;;;;5090329;28;20050;-87
2023/08/06 12:15:06;;;;;;;3.45;1.40;;;;;;;;;;5088537;28;20028;-87
2023/08/06 12:17:32;;;;;;;3.42;1.60;;;;;;;;;;5091147;28;20119;-87
2023/08/06 12:19:57;;;;;;;3.85;1.45;;;;;;;;;;5090971;28;20119;-88
2023/08/06 12:22:23;;;;;;;6.00;1.60;;;;;;;;;;5092196;28;20050;-87
2023/08/06 12:24:48;;;;;;;4.45;1.63;;;;;;;;;;5086654;28;20035;-87
2023/08/06 12:27:16;;;;;;;3.92;1.52;;;;;;;;;;5084101;28;20020;-87
2023/08/06 12:29:47;;;;;;;5.85;1.70;;;;;;;;;;5090980;28;20024;-87
2023/08/06 12:32:14;;;;;;;3.05;1.60;;;;;;;;;;5086289;28;20020;-87
2023/08/06 12:34:42;;;;;;;6.90;1.85;;;;;;;;;;5092237;28;20024;-87
2023/08/06 12:37:08;;;;;;;4.50;1.60;;;;;;;;;;5085521;28;20039;-87
2023/08/06 12:39:37;;;;;;;2.90;1.65;;;;;;;;;;5090260;28;20384;-87
2023/08/06 12:42:04;;;;;;;5.20;1.80;;;;;;;;;;5091074;28;20027;-88
2023/08/06 12:44:30;;;;;;;6.07;1.60;;;;;;;;;;5090587;28;20383;-88
2023/08/06 12:46:56;;;;;;;3.67;1.48;;;;;;;;;;5098016;28;20024;-87
2023/08/06 12:49:22;;;;;;;3.47;1.80;;;;;;;;;;5091656;28;20484;-86
2023/08/06 12:51:50;;;;;;;6.03;1.90;;;;;;;;;;5091946;28;20044;-88
2023/08/06 12:54:20;;;;;;;4.68;1.63;;;;;;;;;;5096753;28;20039;-85
2023/08/06 12:56:46;;;;;;;4.32;1.55;;;;;;;;;;5092846;28;20064;-89
2023/08/06 12:59:15;;;;;;;6.25;1.75;;;;;;;;;;5092509;28;20047;-90
2023/08/06 13:01:42;;;;;;;4.45;1.30;;;;;;;;;;5086213;28;20110;-90
2023/08/06 13:04:07;;;;;;;2.60;1.20;;;;;;;;;;5095699;28;20051;-88
2023/08/06 13:06:36;;;;;;;3.45;1.40;;;;;;;;;;5090394;28;20388;-89
2023/08/06 13:09:07;;;;;;;4.20;1.30;;;;;;;;;;5093281;28;20012;-89
2023/08/06 13:11:32;;;;;;;5.13;1.45;;;;;;;;;;5092817;28;20118;-89
2023/08/06 13:14:09;;;;;;;3.25;1.23;;;;;;;;;;5094948;28;20054;-89
2023/08/06 13:16:35;;;;;;;5.03;1.30;;;;;;;;;;5097604;28;20072;-89
2023/08/06 13:19:01;;;;;;;4.00;1.40;;;;;;;;;;5099549;28;20091;-88
2023/08/06 13:21:51;;;;;;;5.07;1.42;;;;;;;;;;5101525;28;20039;-88
2023/08/06 13:24:17;;;;;;;4.88;1.25;;;;;;;;;;5102211;28;20024;-89
2023/08/06 13:26:42;;;;;;;3.80;1.25;;;;;;;;;;5103211;28;20031;-86
2023/08/06 13:29:08;;;;;;;3.25;1.25;;;;;;;;;;5104036;28;20024;-88
2023/08/06 13:31:33;;;;;;;2.65;1.30;;;;;;;;;;5095528;28;20024;-87
2023/08/06 13:33:59;;;;;;;2.65;1.05;;;;;;;;;;5105462;28;20371;-86
2023/08/06 13:36:27;;;;;;;2.78;1.10;;;;;;;;;;5108492;28;20023;-82
2023/08/06 13:38:53;;;;;;;1.73;1.10;;;;;;;;;;5096624;28;20028;-86
2023/08/06 13:41:19;;;;;;;3.08;1.30;;;;;;;;;;5108353;28;20044;-88
2023/08/06 13:43:44;;;;;;;9.13;2.38;;;;;;;;;;5115981;28;20052;-88
2023/08/06 13:46:15;;;;;;;4.30;1.08;;;;;;;;;;5088983;28;20024;-86
2023/08/06 13:48:41;;;;;;;2.65;1.15;;;;;;;;;;5100854;28;20020;-88
2023/08/06 13:51:06;;;;;;;5.32;1.40;;;;;;;;;;5100460;28;20024;-84
2023/08/06 13:53:32;;;;;;;2.67;1.10;;;;;;;;;;5099504;28;20028;-88
2023/08/06 13:55:57;;;;;;;6.03;1.42;;;;;;;;;;5097907;28;20053;-83
2023/08/06 13:58:23;;;;;;;2.70;1.00;;;;;;;;;;5108541;28;20020;-88
2023/08/06 14:00:49;;;;;;;4.93;1.10;;;;;;;;;;5094925;28;20493;-86
2023/08/06 14:03:14;;;;;;;1.67;1.13;;;;;;;;;;5093596;28;20078;-88
2023/08/06 14:05:41;;;;;;;2.90;1.23;;;;;;;;;;5096401;28;20023;-86
2023/08/06 14:08:06;;;;;;;2.60;1.13;;;;;;;;;;5089248;28;20425;-88
2023/08/06 14:10:32;;;;;;;13.73;1.30;;;;;;;;;;5091898;28;20122;-88
2023/08/06 14:12:57;;;;;;;2.65;1.20;;;;;;;;;;5093881;28;20028;-88
2023/08/06 14:15:23;;;;;;;2.15;0.88;;;;;;;;;;5091261;28;20460;-87
2023/08/06 14:17:49;;;;;;;2.72;0.93;;;;;;;;;;5087030;28;20032;-88
2023/08/06 14:20:14;;;;;;;3.40;1.67;;;;;;;;;;5089016;28;20428;-88
2023/08/06 14:22:40;;;;;;;2.85;1.50;;;;;;;;;;5090033;28;20059;-88
2023/08/06 14:25:06;;;;;;;3.95;1.10;;;;;;;;;;5094735;28;20024;-85
2023/08/06 14:27:31;;;;;;;4.65;1.10;;;;;;;;;;5092761;28;20053;-88
2023/08/06 14:29:57;;;;;;;3.10;0.90;;;;;;;;;;5086793;28;20020;-87
2023/08/06 14:32:22;;;;;;;3.55;1.20;;;;;;;;;;5087003;28;20031;-89
2023/08/06 14:34:48;;;;;;;4.25;1.20;;;;;;;;;;5095319;28;20024;-88
2023/08/06 14:37:13;;;;;;;4.88;1.27;;;;;;;;;;5091865;28;20495;-88
2023/08/06 14:39:38;;;;;;;4.07;1.20;;;;;;;;;;5094607;28;20016;-88